Time;durP1;ratioP1;P1;durP2;ratioP2;P2;SDS_P1;SDS_P2;PMS_P1;PMS_P2;Temp;Humidity;BMP_temperature;BMP_pressure;BME280_temperature;BME280_humidity;BME280_pressure;Samples;Min_cycle;Max_cycle;Signal;HPM_P1;HPM_P2
2020/12/02 00:00:18;;;;;;;24.47;18.40;;;1.30;99.90;;;2.12;100.00;97977.34;5221663;28;20208;-80
2020/12/02 00:03:00;;;;;;;21.77;17.33;;;1.30;99.90;;;2.13;100.00;97981.63;5235893;28;20620;-80
2020/12/02 00:05:34;;;;;;;21.17;17.17;;;1.30;99.90;;;2.11;100.00;97975.56;5232269;28;20199;-78
2020/12/02 00:08:12;;;;;;;21.37;16.77;;;1.30;99.90;;;2.10;100.00;97983.00;5234547;28;20206;-78
2020/12/02 00:10:46;;;;;;;20.70;16.53;;;1.30;99.90;;;2.10;100.00;97981.38;5232984;28;20252;-80
2020/12/02 00:13:23;;;;;;;20.73;16.40;;;1.30;99.90;;;2.11;100.00;97978.09;5234159;28;20232;-80
2020/12/02 00:15:55;;;;;;;18.93;16.23;;;1.30;99.90;;;2.11;100.00;97970.53;5233274;28;20206;-78
2020/12/02 00:18:29;;;;;;;17.87;14.90;;;1.30;99.90;;;2.11;100.00;97977.19;5232795;28;20202;-78
2020/12/02 00:21:01;;;;;;;19.03;16.00;;;1.30;99.90;;;2.11;100.00;97975.56;5232666;28;20228;-79
2020/12/02 00:23:33;;;;;;;19.83;17.17;;;1.30;99.90;;;2.14;100.00;97978.34;5231631;28;20204;-77
2020/12/02 00:26:08;;;;;;;21.17;18.30;;;1.40;99.90;;;2.16;100.00;97984.44;5232809;28;20218;-78
2020/12/02 00:28:40;;;;;;;22.40;18.03;;;1.40;99.90;;;2.17;100.00;97983.69;5222994;28;20198;-79
2020/12/02 00:31:13;;;;;;;23.07;18.40;;;1.30;99.90;;;2.17;100.00;97976.13;5216542;28;20279;-79
2020/12/02 00:33:45;;;;;;;22.80;17.80;;;1.40;99.90;;;2.19;100.00;97972.09;5223965;28;20278;-79
2020/12/02 00:36:18;;;;;;;18.43;15.77;;;1.40;99.90;;;2.21;100.00;97973.16;5232915;28;20265;-79
2020/12/02 00:38:51;;;;;;;21.73;17.93;;;1.40;99.90;;;2.21;100.00;97970.63;5232178;28;20226;-79
2020/12/02 00:41:23;;;;;;;18.07;15.63;;;1.40;99.90;;;2.20;100.00;97968.88;5233066;28;20225;-79
2020/12/02 00:43:55;;;;;;;19.87;17.17;;;1.40;99.90;;;2.21;100.00;97963.06;5227913;28;20211;-79
2020/12/02 00:46:27;;;;;;;19.67;16.27;;;1.40;99.90;;;2.21;100.00;97965.59;5233521;28;20201;-79
2020/12/02 00:49:01;;;;;;;20.83;16.87;;;1.40;99.90;;;2.21;100.00;97968.09;5231909;28;20202;-79
2020/12/02 00:51:33;;;;;;;18.00;15.53;;;1.40;99.90;;;2.20;100.00;97963.81;5215352;28;20227;-78
2020/12/02 00:54:05;;;;;;;19.10;17.03;;;1.40;99.90;;;2.22;100.00;97964.81;5224404;28;20204;-77
2020/12/02 00:56:43;;;;;;;18.67;16.57;;;1.40;99.90;;;2.21;100.00;97964.69;5231205;28;20200;-79
2020/12/02 00:59:22;;;;;;;18.60;15.47;;;1.40;99.90;;;2.21;100.00;97968.09;5219823;28;20211;-79
2020/12/02 01:02:03;;;;;;;18.63;15.47;;;1.40;99.90;;;2.21;100.00;97970.63;5213068;28;20664;-78
2020/12/02 01:04:36;;;;;;;20.23;17.07;;;1.40;99.90;;;2.20;100.00;97967.94;5228938;28;20243;-79
2020/12/02 01:07:08;;;;;;;23.13;18.53;;;1.40;99.90;;;2.22;100.00;97966.47;5232663;28;20203;-79
2020/12/02 01:09:41;;;;;;;23.40;17.93;;;1.40;99.90;;;2.19;100.00;97966.19;5229045;28;20200;-79
2020/12/02 01:12:17;;;;;;;24.13;19.17;;;1.30;99.90;;;2.17;100.00;97963.50;5232136;28;20732;-78
2020/12/02 01:14:50;;;;;;;32.87;22.20;;;1.30;99.90;;;2.18;100.00;97959.38;5234184;28;20204;-78
2020/12/02 01:17:22;;;;;;;25.80;18.80;;;1.40;99.90;;;2.18;100.00;97955.22;5232960;28;20200;-79
2020/12/02 01:19:54;;;;;;;22.63;17.83;;;1.40;99.90;;;2.20;100.00;97963.81;5233985;28;20677;-78
2020/12/02 01:22:31;;;;;;;23.47;17.80;;;1.40;99.90;;;2.20;100.00;97970.47;5232411;28;20222;-80
2020/12/02 01:25:10;;;;;;;24.53;18.13;;;1.40;99.90;;;2.20;100.00;97968.88;5232319;28;20205;-79
2020/12/02 01:27:52;;;;;;;23.70;18.93;;;1.40;99.90;;;2.21;100.00;97964.69;5229256;28;20196;-79
2020/12/02 01:30:25;;;;;;;21.13;17.60;;;1.30;99.90;;;2.22;100.00;97959.78;5230872;28;20316;-79
2020/12/02 01:32:58;;;;;;;23.47;18.87;;;1.40;99.90;;;2.21;100.00;97959.66;5227520;28;20630;-79
2020/12/02 01:35:33;;;;;;;21.40;18.23;;;1.40;99.90;;;2.21;100.00;97955.50;5231823;28;20193;-78
2020/12/02 01:38:06;;;;;;;18.97;16.93;;;1.40;99.90;;;2.19;100.00;97953.56;5233209;28;20211;-78
2020/12/02 01:40:40;;;;;;;20.27;17.50;;;1.40;99.90;;;2.17;100.00;97948.38;5232105;28;20385;-79
2020/12/02 01:43:13;;;;;;;20.50;16.83;;;1.40;99.90;;;2.21;100.00;97950.44;5228291;28;20251;-79
2020/12/02 01:45:48;;;;;;;20.53;17.40;;;1.40;99.90;;;2.24;100.00;97948.19;5232253;28;20300;-79
2020/12/02 01:48:59;;;;;;;21.20;16.77;;;1.40;99.90;;;2.23;100.00;97955.63;5232451;28;20208;-78
2020/12/02 01:52:06;;;;;;;20.43;16.53;;;1.40;99.90;;;2.20;100.00;97958.78;5224580;28;20216;-78
2020/12/02 01:54:46;;;;;;;20.63;16.47;;;1.40;99.90;;;2.17;100.00;97958.47;5219746;28;20694;-79
2020/12/02 01:57:23;;;;;;;21.23;17.13;;;1.30;99.90;;;2.17;100.00;97952.53;5232899;28;20203;-78
2020/12/02 02:00:05;;;;;;;20.53;16.70;;;1.30;99.90;;;2.20;100.00;97956.25;5231804;28;20225;-80
2020/12/02 02:02:45;;;;;;;23.43;18.77;;;1.40;99.90;;;2.21;100.00;97960.53;5231448;28;20204;-78
2020/12/02 02:05:23;;;;;;;22.60;17.73;;;1.40;99.90;;;2.22;100.00;97958.91;5232057;28;20574;-78
2020/12/02 02:07:55;;;;;;;21.07;17.63;;;1.30;99.90;;;2.15;100.00;97949.03;5228383;28;20713;-78
2020/12/02 02:10:32;;;;;;;20.17;17.07;;;1.30;99.90;;;2.16;100.00;97954.19;5232799;28;20696;-78
2020/12/02 02:13:53;;;;;;;20.50;17.10;;;1.30;99.90;;;2.20;100.00;97957.84;5231650;28;20221;-77
2020/12/02 02:16:29;;;;;;;19.43;16.27;;;1.40;99.90;;;2.21;100.00;97960.53;5230634;28;20396;-79
2020/12/02 02:19:01;;;;;;;20.33;17.07;;;1.40;99.90;;;2.21;100.00;97962.19;5230556;28;20201;-78
2020/12/02 02:21:35;;;;;;;18.93;16.43;;;1.40;99.90;;;2.22;100.00;97957.25;5212925;28;20227;-79
2020/12/02 02:24:10;;;;;;;19.00;16.17;;;1.40;99.90;;;2.24;100.00;97949.84;5230983;28;20211;-76
2020/12/02 02:26:47;;;;;;;21.20;17.27;;;1.40;99.90;;;2.27;100.00;97955.16;5228152;28;20203;-78
2020/12/02 02:29:22;;;;;;;24.53;18.97;;;1.40;99.90;;;2.29;100.00;97947.72;5231378;28;20203;-78
2020/12/02 02:32:00;;;;;;;25.73;18.37;;;1.50;99.90;;;2.24;100.00;97945.69;5230522;28;20232;-78
2020/12/02 02:34:36;;;;;;;19.70;16.20;;;1.40;99.90;;;2.23;100.00;97943.91;5230453;28;20196;-76
2020/12/02 02:37:13;;;;;;;20.53;16.27;;;1.40;99.90;;;2.24;100.00;97939.75;5229496;28;20240;-78
2020/12/02 02:39:48;;;;;;;23.97;18.67;;;1.40;99.90;;;2.28;100.00;97940.91;5232181;28;20664;-77
2020/12/02 02:42:31;;;;;;;19.50;15.60;;;1.50;99.90;;;2.30;100.00;97940.31;5232502;28;20205;-79
2020/12/02 02:45:11;;;;;;;21.03;16.07;;;1.50;99.90;;;2.34;100.00;97936.41;5232084;28;20209;-78
2020/12/02 02:47:45;;;;;;;19.97;15.77;;;1.50;99.90;;;2.35;100.00;97941.63;5229471;28;20227;-79
2020/12/02 02:50:19;;;;;;;23.40;18.67;;;1.50;99.90;;;2.35;100.00;97945.78;5230999;28;20197;-78
2020/12/02 02:52:53;;;;;;;23.33;17.77;;;1.50;99.90;;;2.34;100.00;97941.47;5230720;28;20227;-78
2020/12/02 02:55:27;;;;;;;23.27;17.53;;;1.50;99.90;;;2.34;100.00;97946.50;5230965;28;20206;-79
2020/12/02 02:58:00;;;;;;;22.00;17.07;;;1.50;99.90;;;2.34;100.00;97937.28;5231632;28;20195;-78
2020/12/02 03:00:34;;;;;;;19.13;16.33;;;1.50;99.90;;;2.35;100.00;97943.25;5226790;28;20293;-79
2020/12/02 03:03:09;;;;;;;18.70;16.33;;;1.50;99.90;;;2.35;100.00;97933.16;5228403;28;20209;-79
2020/12/02 03:05:41;;;;;;;20.90;16.20;;;1.50;99.90;;;2.35;100.00;97938.22;5235520;28;20197;-78
2020/12/02 03:08:14;;;;;;;24.47;18.10;;;1.50;99.90;;;2.35;100.00;97935.69;5234685;28;20205;-77
2020/12/02 03:10:47;;;;;;;22.30;16.77;;;1.50;99.90;;;2.28;100.00;97926.66;5235477;28;20228;-78
2020/12/02 03:13:33;;;;;;;21.43;16.87;;;1.50;99.90;;;2.33;100.00;97937.19;5234699;28;20233;-78
2020/12/02 03:16:15;;;;;;;21.57;17.27;;;1.50;99.90;;;2.30;100.00;97931.84;5235224;28;20201;-78
2020/12/02 03:18:49;;;;;;;21.17;16.97;;;1.40;99.90;;;2.29;100.00;97927.53;5230078;28;20223;-79
2020/12/02 03:21:22;;;;;;;22.07;16.80;;;1.40;99.90;;;2.29;100.00;97932.59;5236410;28;20213;-78
2020/12/02 03:23:54;;;;;;;21.83;17.30;;;1.40;99.90;;;2.28;100.00;97936.75;5234324;28;20207;-78
2020/12/02 03:26:26;;;;;;;20.00;16.73;;;1.40;99.90;;;2.23;100.00;97928.78;5234255;28;20298;-79
2020/12/02 03:28:59;;;;;;;20.47;16.20;;;1.40;99.90;;;2.24;100.00;97934.72;5235391;28;20201;-79
2020/12/02 03:31:32;;;;;;;20.63;16.67;;;1.40;99.90;;;2.23;100.00;97938.88;5234667;28;20228;-79
2020/12/02 03:34:06;;;;;;;22.73;17.33;;;1.40;99.90;;;2.27;100.00;97929.94;5233639;28;20230;-79
2020/12/02 03:36:38;;;;;;;21.77;15.80;;;1.30;99.90;;;2.22;100.00;97931.16;5233521;28;20205;-79
2020/12/02 03:39:13;;;;;;;22.63;17.47;;;1.40;99.90;;;2.21;100.00;97940.38;5232968;28;20584;-78
2020/12/02 03:41:46;;;;;;;21.83;16.50;;;1.40;99.90;;;2.19;100.00;97931.78;5232713;28;20593;-79
2020/12/02 03:44:18;;;;;;;22.27;16.57;;;1.30;99.90;;;2.20;100.00;97938.59;5229848;28;20193;-78
2020/12/02 03:46:50;;;;;;;18.90;15.23;;;1.30;99.90;;;2.25;100.00;97939.88;5229198;28;20203;-80
2020/12/02 03:49:22;;;;;;;20.63;16.63;;;1.40;99.90;;;2.27;100.00;97939.16;5233477;28;20207;-78
2020/12/02 03:51:55;;;;;;;23.53;16.53;;;1.40;99.90;;;2.24;100.00;97943.16;5233565;28;20224;-77
2020/12/02 03:54:27;;;;;;;21.20;16.00;;;1.30;99.90;;;2.12;98.72;97938.63;5235278;28;20208;-80
2020/12/02 03:56:59;;;;;;;20.80;16.30;;;1.20;99.90;;;2.13;99.37;97936.25;5236027;28;20269;-79
2020/12/02 03:59:32;;;;;;;21.93;16.03;;;1.20;99.90;;;2.07;99.94;97935.72;5223597;28;20191;-79
2020/12/02 04:02:03;;;;;;;21.37;16.10;;;1.20;99.90;;;2.12;99.63;97934.50;5235540;28;20307;-79
2020/12/02 04:04:36;;;;;;;23.63;17.53;;;1.20;99.90;;;2.11;99.90;97937.75;5233570;28;20202;-81
2020/12/02 04:07:08;;;;;;;23.20;17.67;;;1.20;99.90;;;2.08;100.00;97929.91;5233331;28;20551;-79
2020/12/02 04:09:40;;;;;;;24.07;17.30;;;1.20;99.90;;;2.09;99.86;97930.78;5234629;28;20668;-79
2020/12/02 04:12:12;;;;;;;20.87;16.70;;;1.20;99.90;;;2.08;100.00;97932.44;5234948;28;20225;-81
2020/12/02 04:14:45;;;;;;;23.80;17.13;;;1.20;99.90;;;2.09;100.00;97929.19;5232957;28;20198;-81
2020/12/02 04:17:17;;;;;;;24.10;17.83;;;1.30;99.90;;;2.12;100.00;97934.50;5234748;28;20209;-79
2020/12/02 04:19:49;;;;;;;22.70;17.33;;;1.30;99.90;;;2.08;100.00;97924.88;5233920;28;20204;-81
2020/12/02 04:22:21;;;;;;;27.10;18.00;;;1.30;99.90;;;2.16;100.00;97926.44;5233165;28;20224;-80
2020/12/02 04:24:53;;;;;;;27.53;19.87;;;1.40;99.90;;;2.08;99.69;97924.88;5233325;28;20198;-80
2020/12/02 04:27:25;;;;;;;27.83;19.67;;;1.30;99.90;;;2.11;100.00;97929.31;5231597;28;20205;-80
2020/12/02 04:29:58;;;;;;;25.90;19.03;;;1.30;99.90;;;2.07;99.28;97927.28;5233355;28;20653;-80
2020/12/02 04:32:30;;;;;;;26.20;17.80;;;1.30;99.90;;;2.12;100.00;97918.47;5232966;28;20703;-79
2020/12/02 04:35:02;;;;;;;26.50;18.43;;;1.30;99.90;;;2.10;99.66;97920.88;5235017;28;20230;-79
2020/12/02 04:37:36;;;;;;;28.17;20.77;;;1.30;99.90;;;2.13;100.00;97921.13;5233420;28;20197;-79
2020/12/02 04:40:13;;;;;;;28.13;18.53;;;1.40;99.90;;;2.08;100.00;97922.34;5233963;28;20203;-79
2020/12/02 04:42:48;;;;;;;27.13;19.17;;;1.30;99.90;;;2.11;100.00;97925.16;5231151;28;20656;-79
2020/12/02 04:45:20;;;;;;;30.70;20.97;;;1.30;99.90;;;2.23;99.89;97921.22;5228219;28;20200;-78
2020/12/02 04:47:59;;;;;;;26.53;18.60;;;1.40;99.90;;;2.21;100.00;97919.31;5228244;28;20211;-78
2020/12/02 04:50:31;;;;;;;29.10;19.67;;;1.40;99.90;;;2.21;100.00;97917.69;5229571;28;20224;-79
2020/12/02 04:53:12;;;;;;;26.53;19.23;;;1.40;99.90;;;2.25;100.00;97907.09;5228681;28;20314;-80
2020/12/02 04:55:50;;;;;;;26.63;19.53;;;1.40;99.90;;;2.26;100.00;97918.06;5227995;28;20305;-79
2020/12/02 04:58:30;;;;;;;27.83;18.70;;;1.40;99.90;;;2.25;100.00;97916.31;5228261;28;20200;-78
2020/12/02 05:01:17;;;;;;;27.87;18.60;;;1.40;99.90;;;2.23;100.00;97918.72;5226687;28;20230;-78
2020/12/02 05:03:59;;;;;;;29.77;18.43;;;1.40;99.90;;;2.23;100.00;97918.72;5223711;28;20216;-78
2020/12/02 05:06:37;;;;;;;25.30;17.70;;;1.40;99.90;;;2.27;100.00;97918.97;5224717;28;20205;-78
2020/12/02 05:09:18;;;;;;;27.20;19.07;;;1.40;99.90;;;2.21;99.82;97914.28;5227762;28;20211;-78
2020/12/02 05:11:58;;;;;;;26.83;19.17;;;1.40;99.90;;;2.22;99.92;97914.38;5226183;28;20230;-79
2020/12/02 05:14:35;;;;;;;28.83;19.63;;;1.30;99.90;;;2.22;100.00;97905.94;5226585;28;20206;-78
2020/12/02 05:17:22;;;;;;;27.57;18.60;;;1.40;99.90;;;2.22;100.00;97911.88;5228754;28;20195;-78
2020/12/02 05:20:15;;;;;;;27.70;19.53;;;1.50;99.90;;;2.22;100.00;97916.91;5227677;28;20246;-78
2020/12/02 05:22:51;;;;;;;32.20;20.27;;;1.40;99.90;;;2.19;100.00;97916.63;5228112;28;20472;-79
2020/12/02 05:25:30;;;;;;;31.00;18.93;;;1.40;99.90;;;2.25;100.00;97919.72;5227109;28;20200;-78
2020/12/02 05:28:17;;;;;;;30.70;19.73;;;1.40;99.90;;;2.21;100.00;97914.28;5223915;28;20197;-78
2020/12/02 05:31:00;;;;;;;27.57;18.17;;;1.40;99.90;;;2.29;100.00;97909.88;5227287;28;20237;-78
2020/12/02 05:33:35;;;;;;;29.67;19.37;;;1.40;99.90;;;2.29;100.00;97925.03;5211494;28;20222;-78
2020/12/02 05:36:14;;;;;;;29.33;19.33;;;1.40;99.90;;;2.32;100.00;97920.25;5225197;28;20210;-78
2020/12/02 05:38:57;;;;;;;30.93;20.67;;;1.40;99.90;;;2.24;99.51;97928.03;5228095;28;20223;-78
2020/12/02 05:41:30;;;;;;;28.27;20.63;;;1.30;99.90;;;2.20;100.00;97928.53;5220190;28;20612;-79
2020/12/02 05:44:06;;;;;;;30.57;19.23;;;1.30;99.90;;;2.17;99.55;97920.66;5224043;28;20207;-79
2020/12/02 05:46:45;;;;;;;29.73;20.47;;;1.20;99.90;;;2.13;100.00;97922.78;5223449;28;20196;-78
2020/12/02 05:49:30;;;;;;;31.73;21.47;;;1.30;99.90;;;1.99;98.44;97917.38;5224073;28;20200;-77
2020/12/02 05:52:03;;;;;;;29.33;19.73;;;1.20;99.90;;;2.12;99.38;97918.47;5218661;28;20226;-78
2020/12/02 05:54:35;;;;;;;29.37;20.10;;;1.20;99.90;;;2.14;99.88;97915.34;5225572;28;20600;-78
2020/12/02 05:57:08;;;;;;;30.63;20.13;;;1.30;99.90;;;2.14;99.62;97922.91;5227493;28;20200;-79
2020/12/02 05:59:40;;;;;;;27.53;18.97;;;1.20;99.90;;;2.12;99.81;97920.97;5225453;28;20208;-78
2020/12/02 06:02:15;;;;;;;28.83;19.27;;;1.20;99.90;;;2.14;99.67;97917.84;5225114;28;20724;-78
2020/12/02 06:04:53;;;;;;;31.57;19.37;;;1.30;99.90;;;2.21;100.00;97914.28;5227173;28;20200;-79
2020/12/02 06:07:25;;;;;;;32.80;20.77;;;1.30;99.90;;;2.17;99.05;97918.13;5228926;28;20199;-79
2020/12/02 06:09:57;;;;;;;33.33;21.33;;;1.30;99.90;;;2.13;99.88;97915.22;5227268;28;20299;-78
2020/12/02 06:12:42;;;;;;;30.73;19.93;;;1.30;99.90;;;2.14;99.52;97915.34;5226802;28;20238;-79
2020/12/02 06:15:22;;;;;;;32.27;20.67;;;1.30;99.90;;;2.21;100.00;97912.63;5228362;28;20204;-79
2020/12/02 06:18:22;;;;;;;32.37;20.30;;;1.40;99.90;;;2.20;100.00;97913.38;5225556;28;20212;-79
2020/12/02 06:20:55;;;;;;;33.00;20.63;;;1.40;99.90;;;2.21;99.87;97907.59;5226183;28;20311;-78
2020/12/02 06:23:34;;;;;;;34.47;21.40;;;1.40;99.90;;;2.22;100.00;97911.88;5224743;28;20193;-78
2020/12/02 06:26:06;;;;;;;36.47;21.83;;;1.40;99.90;;;2.27;100.00;97913.94;5225802;28;20208;-79
2020/12/02 06:28:48;;;;;;;34.77;21.40;;;1.40;99.90;;;2.27;99.52;97909.78;5226690;28;20205;-78
2020/12/02 06:31:26;;;;;;;34.57;21.37;;;1.40;99.90;;;2.23;100.00;97908.63;5226497;28;20226;-78
2020/12/02 06:34:07;;;;;;;37.17;21.77;;;1.40;99.90;;;2.27;99.96;97918.97;5221713;28;20231;-78
2020/12/02 06:36:40;;;;;;;39.13;23.77;;;1.40;99.90;;;2.24;99.64;97917.06;5228423;28;20205;-78
2020/12/02 06:39:25;;;;;;;38.23;22.03;;;1.40;99.90;;;2.22;99.83;97906.81;5229713;28;20201;-77
2020/12/02 06:42:02;;;;;;;38.23;22.13;;;1.40;99.90;;;2.22;100.00;97906.81;5234190;28;20228;-79
2020/12/02 06:44:59;;;;;;;39.50;22.17;;;1.40;99.90;;;2.29;100.00;97917.47;5232245;28;20205;-77
2020/12/02 06:47:32;;;;;;;38.43;23.03;;;1.40;99.90;;;2.29;100.00;97914.94;5223733;28;20188;-79
2020/12/02 06:50:11;;;;;;;37.60;20.73;;;1.40;99.90;;;2.29;99.93;97917.47;5227458;28;20204;-81
2020/12/02 06:52:44;;;;;;;34.87;22.37;;;1.40;99.90;;;2.31;100.00;97910.94;5228214;28;20710;-79
2020/12/02 06:55:23;;;;;;;38.40;22.77;;;1.50;99.90;;;2.32;100.00;97910.16;5229215;28;20225;-78
2020/12/02 06:57:59;;;;;;;41.00;23.50;;;1.40;99.90;;;2.27;99.16;97918.97;5225524;28;20215;-78
2020/12/02 07:00:41;;;;;;;41.53;25.00;;;1.40;99.90;;;2.23;98.88;97913.66;5224618;28;20243;-78
2020/12/02 07:03:19;;;;;;;43.53;24.93;;;1.30;99.90;;;2.28;100.00;97918.22;5229107;28;20197;-79
2020/12/02 07:06:04;;;;;;;42.57;24.90;;;1.30;99.90;;;2.25;99.14;97917.19;5219566;28;20202;-78
2020/12/02 07:08:39;;;;;;;44.97;25.27;;;1.30;99.90;;;2.20;99.56;97918.44;5228827;28;20205;-78
2020/12/02 07:11:17;;;;;;;49.17;27.20;;;1.30;99.90;;;2.20;100.00;97913.38;5230028;28;20296;-78
2020/12/02 07:13:52;;;;;;;46.67;26.70;;;1.40;99.90;;;2.10;98.66;97913.31;5230363;28;20226;-78
2020/12/02 07:16:30;;;;;;;48.67;26.33;;;1.30;99.90;;;2.11;99.51;97917.59;5229177;28;20427;-78
2020/12/02 07:19:06;;;;;;;50.63;27.17;;;1.20;99.90;;;2.14;99.57;97917.84;5228325;28;20284;-80
2020/12/02 07:21:44;;;;;;;50.73;28.07;;;1.30;99.90;;;2.22;99.03;97921.97;5229902;28;20220;-79
2020/12/02 07:24:22;;;;;;;50.80;26.10;;;1.30;99.90;;;2.17;98.73;97909.69;5231027;28;20198;-79
2020/12/02 07:26:55;;;;;;;50.73;27.73;;;1.30;99.90;;;2.16;99.34;97916.38;5238388;28;20201;-79
2020/12/02 07:29:28;;;;;;;55.53;29.17;;;1.30;99.90;;;2.21;99.22;97920.19;5223255;28;20211;-79
2020/12/02 07:32:04;;;;;;;52.47;29.03;;;1.40;99.90;;;2.17;98.63;97919.78;5227323;28;20231;-79
2020/12/02 07:34:36;;;;;;;59.60;27.93;;;1.40;99.90;;;2.20;99.36;97927.59;5214996;28;20348;-79
2020/12/02 07:37:13;;;;;;;59.57;30.03;;;1.40;99.90;;;2.19;99.76;97924.19;5226738;28;20210;-79
2020/12/02 07:39:50;;;;;;;58.53;29.47;;;1.40;99.90;;;2.10;98.23;97925.91;5223609;28;20205;-79
2020/12/02 07:42:29;;;;;;;59.63;30.00;;;1.30;99.90;;;2.20;99.34;97932.66;5225087;28;20587;-79
2020/12/02 07:45:06;;;;;;;52.90;27.37;;;1.30;99.90;;;2.19;99.61;97926.72;5230694;28;20554;-78
2020/12/02 07:50:34;;;;;;;55.13;28.93;;;1.30;99.90;;;2.20;99.30;97933.56;5172413;28;20965;-76
2020/12/02 07:53:13;;;;;;;67.20;32.00;;;1.30;99.90;;;2.25;99.77;97929.78;5180923;28;20229;-76
2020/12/02 07:55:50;;;;;;;61.07;33.00;;;1.40;99.90;;;2.20;99.75;97928.53;5182738;28;20200;-77
2020/12/02 07:58:29;;;;;;;59.27;29.87;;;1.30;99.90;;;2.23;99.19;97922.84;5190461;28;20231;-76
2020/12/02 08:01:08;;;;;;;59.30;29.17;;;1.30;99.90;;;2.22;99.58;97926.13;5206898;28;20209;-77
2020/12/02 08:03:41;;;;;;;60.73;30.90;;;1.40;99.90;;;2.27;99.70;97929.94;5205887;28;20691;-76
2020/12/02 08:06:28;;;;;;;60.27;33.97;;;1.40;99.90;;;2.31;99.67;97926.06;5205880;28;20550;-76
2020/12/02 08:09:00;;;;;;;69.33;34.73;;;1.50;99.90;;;2.34;99.48;97929.72;5205646;28;20720;-76
2020/12/02 08:11:33;;;;;;;59.80;32.93;;;1.50;99.90;;;2.34;100.00;97921.28;5205316;28;20212;-76
2020/12/02 08:14:05;;;;;;;57.30;30.80;;;1.40;99.90;;;2.34;99.77;97921.28;5203696;28;20224;-77
2020/12/02 08:16:42;;;;;;;54.37;29.20;;;1.50;99.90;;;2.38;99.82;97919.19;5207300;28;20220;-75
2020/12/02 08:19:31;;;;;;;53.63;29.83;;;1.50;99.90;;;2.42;100.00;97915.28;5203590;28;20225;-76
2020/12/02 08:22:03;;;;;;;47.63;27.70;;;1.50;99.90;;;2.47;100.00;97924.16;5203862;28;20201;-76
2020/12/02 08:24:41;;;;;;;56.20;31.50;;;1.60;99.90;;;2.46;100.00;97923.28;5203052;28;20205;-76
2020/12/02 08:27:16;;;;;;;66.40;33.27;;;1.50;99.90;;;2.45;99.74;97915.56;5202934;28;20260;-76
2020/12/02 08:29:50;;;;;;;59.03;31.90;;;1.50;99.90;;;2.47;100.00;97917.47;5205021;28;20233;-76
2020/12/02 08:32:30;;;;;;;61.70;32.33;;;1.50;99.90;;;2.52;100.00;97906.88;5204802;28;20211;-76
2020/12/02 08:35:19;;;;;;;56.17;31.50;;;1.60;99.90;;;2.53;100.00;97911.22;5203498;28;20227;-76
2020/12/02 08:37:56;;;;;;;55.53;29.73;;;1.60;99.90;;;2.54;100.00;97921.41;5204994;28;20661;-75
2020/12/02 08:40:43;;;;;;;55.13;29.97;;;1.70;99.90;;;2.58;100.00;97908.34;5203633;28;20201;-76
2020/12/02 08:43:35;;;;;;;54.10;29.67;;;1.70;99.90;;;2.61;100.00;97925.38;5204301;28;20196;-76
2020/12/02 08:46:21;;;;;;;56.00;30.67;;;1.70;99.90;;;2.61;100.00;97923.75;5202601;28;20260;-76
2020/12/02 08:48:59;;;;;;;51.03;28.83;;;1.70;99.90;;;2.63;100.00;97922.25;5205452;28;20233;-77
2020/12/02 08:51:32;;;;;;;49.97;28.77;;;1.70;99.90;;;2.63;100.00;97917.22;5207864;28;20596;-76
2020/12/02 08:54:13;;;;;;;55.10;30.03;;;1.70;99.90;;;2.66;100.00;97919.09;5203954;28;20224;-76
2020/12/02 08:56:45;;;;;;;49.40;26.87;;;1.70;99.90;;;2.58;99.65;97922.59;5203389;28;20209;-76
2020/12/02 08:59:18;;;;;;;49.97;26.57;;;1.60;99.90;;;2.57;99.49;97914.13;5202884;28;20229;-77
2020/12/02 09:01:59;;;;;;;51.07;27.43;;;1.60;99.90;;;2.65;100.00;97914.81;5201460;28;20209;-76
2020/12/02 09:04:31;;;;;;;51.03;25.93;;;1.60;99.90;;;2.60;100.00;97911.84;5203354;28;20196;-76
2020/12/02 09:07:03;;;;;;;48.33;26.17;;;1.60;99.90;;;2.63;98.99;97911.25;5204590;28;20206;-76
2020/12/02 09:09:35;;;;;;;53.00;26.47;;;1.60;99.90;;;2.74;99.08;97904.63;5204761;28;20222;-76
2020/12/02 09:12:08;;;;;;;46.87;25.63;;;1.70;99.90;;;2.64;98.92;97901.31;5203633;28;20292;-76
2020/12/02 09:14:41;;;;;;;48.13;26.63;;;1.60;99.90;;;2.60;98.27;97891.69;5204918;28;20712;-76
2020/12/02 09:17:13;;;;;;;46.37;24.77;;;1.70;99.90;;;2.63;97.11;97897.03;5205224;28;20295;-76
2020/12/02 09:19:45;;;;;;;42.27;24.70;;;1.50;99.90;;;2.56;97.04;97894.69;5204051;28;20251;-76
2020/12/02 09:22:17;;;;;;;42.73;24.50;;;1.50;99.90;;;2.55;97.55;97886.97;5203310;28;20200;-76
2020/12/02 09:24:49;;;;;;;39.97;24.77;;;1.50;99.90;;;2.55;96.93;97892.94;5204778;28;20213;-76
2020/12/02 09:27:21;;;;;;;34.43;20.80;;;1.50;99.90;;;2.58;94.87;97882.22;5203599;28;20198;-76
2020/12/02 09:29:54;;;;;;;35.80;22.33;;;1.50;99.90;;;2.40;93.54;97884.00;5203531;28;20697;-76
2020/12/02 09:32:26;;;;;;;36.03;22.43;;;1.40;99.90;;;2.41;96.16;97881.63;5200400;28;20217;-76
2020/12/02 09:34:59;;;;;;;36.17;22.40;;;1.50;99.90;;;2.53;96.13;97889.38;5195538;28;20229;-75
2020/12/02 09:37:31;;;;;;;36.30;21.03;;;1.50;99.90;;;2.48;95.25;97875.47;5184480;28;20206;-74
2020/12/02 09:40:07;;;;;;;36.37;22.50;;;1.50;99.90;;;2.47;95.36;97878.75;5187604;28;20228;-75
2020/12/02 09:43:01;;;;;;;35.83;21.73;;;1.50;99.90;;;2.47;95.94;97868.66;5191512;28;20196;-76
2020/12/02 09:45:49;;;;;;;39.17;22.20;;;1.60;99.90;;;2.57;97.30;97853.56;5201901;28;20241;-76
2020/12/02 09:48:23;;;;;;;37.83;23.87;;;1.60;99.90;;;2.55;97.22;97852.56;5203673;28;20229;-76
2020/12/02 09:50:56;;;;;;;41.77;23.83;;;1.60;99.90;;;2.48;96.46;97845.19;5199312;28;20210;-76
2020/12/02 09:53:30;;;;;;;37.10;23.83;;;1.60;99.90;;;2.56;97.09;97849.28;5201035;28;20225;-76
2020/12/02 09:56:04;;;;;;;39.77;24.37;;;1.70;99.90;;;2.56;98.22;97844.25;5206353;28;20205;-78
2020/12/02 09:58:38;;;;;;;45.57;26.03;;;1.70;99.90;;;2.51;97.17;97847.13;5196295;28;20222;-77
2020/12/02 10:01:17;;;;;;;45.73;25.70;;;1.60;99.90;;;2.56;98.12;97849.28;5200201;28;20208;-78
2020/12/02 10:04:20;;;;;;;38.67;24.57;;;1.70;99.90;;;2.47;96.16;97848.50;5202558;28;20201;-78
2020/12/02 10:07:11;;;;;;;39.87;23.87;;;1.60;99.90;;;2.54;96.95;97845.75;5197793;28;20204;-77
2020/12/02 10:10:10;;;;;;;39.27;23.23;;;1.60;99.90;;;2.44;95.22;97838.13;5199893;28;20221;-77
2020/12/02 10:13:15;;;;;;;38.63;22.33;;;1.50;99.90;;;2.47;96.82;97831.72;5200706;28;20209;-77
2020/12/02 10:16:00;;;;;;;39.40;24.10;;;1.60;99.90;;;2.37;95.72;97821.56;5197428;28;20204;-77
2020/12/02 10:19:05;;;;;;;41.77;24.33;;;1.50;99.90;;;2.30;92.20;97814.22;5201701;28;20536;-77
2020/12/02 10:21:50;;;;;;;44.53;25.30;;;1.50;99.90;;;2.32;93.69;97817.78;5204813;28;20218;-77
2020/12/02 10:24:38;;;;;;;40.40;24.27;;;1.40;99.90;;;2.29;94.08;97816.59;5208090;28;20207;-78
2020/12/02 10:27:27;;;;;;;42.60;24.73;;;1.40;99.90;;;2.30;94.25;97813.34;5222277;28;20205;-77
2020/12/02 10:30:12;;;;;;;45.80;24.70;;;1.40;99.90;;;2.32;94.50;97811.81;5187775;28;20230;-77
2020/12/02 10:33:10;;;;;;;42.47;24.67;;;1.40;99.90;;;2.31;93.92;97812.59;5187879;28;20759;-77
2020/12/02 10:35:47;;;;;;;40.97;24.87;;;1.50;99.90;;;2.28;94.29;97799.72;5206560;28;20200;-77
2020/12/02 10:38:34;;;;;;;45.63;25.33;;;1.50;99.90;;;2.32;94.90;97799.22;5207914;28;20227;-77
2020/12/02 10:41:25;;;;;;;39.07;24.07;;;1.50;99.90;;;2.31;94.65;97799.97;5195917;28;20197;-77
2020/12/02 10:44:40;;;;;;;41.73;23.87;;;1.50;99.90;;;2.37;95.73;97798.84;5209523;28;20207;-77
2020/12/02 10:48:11;;;;;;;41.07;23.40;;;1.60;99.90;;;2.42;95.45;97789.19;5194911;28;20209;-77
2020/12/02 10:50:44;;;;;;;42.03;24.10;;;1.60;99.90;;;2.15;91.11;97786.03;5207594;28;20202;-76
2020/12/02 10:53:24;;;;;;;41.97;25.47;;;1.50;99.90;;;2.27;93.63;97781.19;5208899;28;20204;-78
2020/12/02 10:55:56;;;;;;;35.87;22.87;;;1.60;99.90;;;2.35;93.88;97781.84;5209830;28;20279;-77
2020/12/02 10:58:31;;;;;;;41.53;25.00;;;1.60;99.90;;;2.31;94.16;97782.31;5207077;28;20246;-76
2020/12/02 11:01:07;;;;;;;41.87;24.90;;;1.50;99.90;;;2.23;92.43;97772.47;5215080;28;20730;-77